Airway Heights, WA (99001)

1:46 AM PDT on July 31, 2016 (GMT -0700)
Medical lake-902 | | Change Station

Elev 2382 ft 47.59 °N, 117.63 °W | Updated 2 minutes ago

Mostly Cloudy
Mostly Cloudy
63.0 °F
Feels Like 63.0 °F
N
11.4
Wind Variable Wind from South

Today
High -- | Low -- °F
--% Chance of Precip.
Yesterday
High -- | Low -- °F
Precip. -- in
Pressure 29.65 in
Visibility 10.0 miles
Clouds Scattered Clouds 5500 ft
Mostly Cloudy 7000 ft
Dew Point 44 °F
Humidity 49%
Rainfall 0.00 in
Snow Depth Not available.
5:27 AM 8:25 PM
Waning Crescent, 8% visible
METAR KGEG 310753Z 21017G23KT 10SM SCT055 BKN070 20/03 A2972 RMK AO2 SLP041 FU SCT055 BKN070 T02000033 403330183
Pressure 29.65 in
Visibility 10.0 miles
Clouds Scattered Clouds 5500 ft
Mostly Cloudy 7000 ft
Dew Point 44 °F
Humidity 49%
Rainfall 0.00 in
Snow Depth Not available.
5:27 AM 8:25 PM
Waning Crescent, 8% visible
METAR KGEG 310753Z 21017G23KT 10SM SCT055 BKN070 20/03 A2972 RMK AO2 SLP041 FU SCT055 BKN070 T02000033 403330183

10-Day Weather Forecast

Almanac

Astronomy

Jul. 31, 2016 Rise Set
Actual Time
Civil Twilight
Nautical Twilight
Astronomical Twilight
Moon
Length of Visible Light
Length of Day
Tomorrow will be .
, % of the Moon is Illuminated

Today's Extremes

State Highs State Lows

Community

WunderPhotos

Upload Photos

1,928,768 photos uploaded!

WunderBlog® & News

Nearby

Air Quality

  Air Quality AQ Index Pollutant
Not available.

Snow Depth

Station Depth Elevation

Earthquake Activity

City Distance Mag. Time & Date
Minimum magnitude displayed is 2.5.

Coastal Water Temperatures

Place Temperature

Stations

Nearby Weather Stations

Station Location Temp. Windchill Dew Point Humidity Wind Precip. Elev Updated Type
                   

Watches & Warnings

There are currently no watches in effect.